sensor_id;sensor_type;location;lat;lon;timestamp;P1;durP1;ratioP1;P2;durP2;ratioP2
44228;SDS011;29904;51.058;5.378;2022-07-04T00:00:21;2.00;;;0.60;;
44228;SDS011;29904;51.058;5.378;2022-07-04T00:02:50;2.33;;;0.70;;
44228;SDS011;29904;51.058;5.378;2022-07-04T00:05:16;1.02;;;0.55;;
44228;SDS011;29904;51.058;5.378;2022-07-04T00:07:44;1.83;;;0.70;;
44228;SDS011;29904;51.058;5.378;2022-07-04T00:10:12;1.63;;;0.63;;
44228;SDS011;29904;51.058;5.378;2022-07-04T00:12:41;2.17;;;0.50;;
44228;SDS011;29904;51.058;5.378;2022-07-04T00:15:07;2.25;;;0.60;;
44228;SDS011;29904;51.058;5.378;2022-07-04T00:17:35;1.63;;;0.60;;
44228;SDS011;29904;51.058;5.378;2022-07-04T00:20:02;0.90;;;0.70;;
44228;SDS011;29904;51.058;5.378;2022-07-04T00:22:29;1.90;;;0.67;;
44228;SDS011;29904;51.058;5.378;2022-07-04T00:24:57;2.58;;;0.70;;
44228;SDS011;29904;51.058;5.378;2022-07-04T00:27:23;1.65;;;0.70;;
44228;SDS011;29904;51.058;5.378;2022-07-04T00:29:49;1.52;;;0.60;;
44228;SDS011;29904;51.058;5.378;2022-07-04T00:32:15;1.80;;;0.80;;
44228;SDS011;29904;51.058;5.378;2022-07-04T00:34:41;1.30;;;0.70;;
44228;SDS011;29904;51.058;5.378;2022-07-04T00:37:07;1.70;;;0.70;;
44228;SDS011;29904;51.058;5.378;2022-07-04T00:39:33;1.13;;;0.73;;
44228;SDS011;29904;51.058;5.378;2022-07-04T00:41:59;1.70;;;0.70;;
44228;SDS011;29904;51.058;5.378;2022-07-04T00:44:25;1.13;;;0.70;;
44228;SDS011;29904;51.058;5.378;2022-07-04T00:46:50;1.97;;;0.70;;
44228;SDS011;29904;51.058;5.378;2022-07-04T00:49:16;1.30;;;0.80;;
44228;SDS011;29904;51.058;5.378;2022-07-04T00:51:43;2.53;;;0.85;;
44228;SDS011;29904;51.058;5.378;2022-07-04T00:54:14;2.80;;;0.90;;
44228;SDS011;29904;51.058;5.378;2022-07-04T00:56:41;1.10;;;0.60;;
44228;SDS011;29904;51.058;5.378;2022-07-04T00:59:08;0.90;;;0.70;;
44228;SDS011;29904;51.058;5.378;2022-07-04T01:01:34;2.60;;;0.70;;
44228;SDS011;29904;51.058;5.378;2022-07-04T01:04:04;1.40;;;0.70;;
44228;SDS011;29904;51.058;5.378;2022-07-04T01:06:31;2.22;;;0.60;;
44228;SDS011;29904;51.058;5.378;2022-07-04T01:08:58;3.75;;;0.70;;
44228;SDS011;29904;51.058;5.378;2022-07-04T01:11:26;1.75;;;0.65;;
44228;SDS011;29904;51.058;5.378;2022-07-04T01:13:55;1.25;;;0.60;;
44228;SDS011;29904;51.058;5.378;2022-07-04T01:16:21;0.90;;;0.70;;
44228;SDS011;29904;51.058;5.378;2022-07-04T01:18:52;1.85;;;0.68;;
44228;SDS011;29904;51.058;5.378;2022-07-04T01:21:18;1.23;;;0.60;;
44228;SDS011;29904;51.058;5.378;2022-07-04T01:23:44;1.77;;;0.70;;
44228;SDS011;29904;51.058;5.378;2022-07-04T01:26:12;2.17;;;0.77;;
44228;SDS011;29904;51.058;5.378;2022-07-04T01:28:38;1.02;;;0.73;;
44228;SDS011;29904;51.058;5.378;2022-07-04T01:31:04;1.80;;;0.90;;
44228;SDS011;29904;51.058;5.378;2022-07-04T01:33:32;1.50;;;0.60;;
44228;SDS011;29904;51.058;5.378;2022-07-04T01:35:58;2.03;;;0.75;;
44228;SDS011;29904;51.058;5.378;2022-07-04T01:38:25;1.45;;;0.80;;
44228;SDS011;29904;51.058;5.378;2022-07-04T01:40:51;0.90;;;0.60;;
44228;SDS011;29904;51.058;5.378;2022-07-04T01:43:17;2.25;;;0.80;;
44228;SDS011;29904;51.058;5.378;2022-07-04T01:45:42;1.25;;;0.77;;
44228;SDS011;29904;51.058;5.378;2022-07-04T01:48:10;0.73;;;0.70;;
44228;SDS011;29904;51.058;5.378;2022-07-04T01:50:36;1.50;;;0.50;;
44228;SDS011;29904;51.058;5.378;2022-07-04T01:53:02;1.63;;;0.70;;
44228;SDS011;29904;51.058;5.378;2022-07-04T01:55:30;1.35;;;0.60;;
44228;SDS011;29904;51.058;5.378;2022-07-04T01:57:56;2.37;;;0.77;;
44228;SDS011;29904;51.058;5.378;2022-07-04T02:00:22;1.77;;;0.80;;
44228;SDS011;29904;51.058;5.378;2022-07-04T02:03:08;1.60;;;0.82;;
44228;SDS011;29904;51.058;5.378;2022-07-04T02:05:35;1.52;;;0.70;;
44228;SDS011;29904;51.058;5.378;2022-07-04T02:08:03;1.23;;;0.85;;
44228;SDS011;29904;51.058;5.378;2022-07-04T02:10:29;1.58;;;0.75;;
44228;SDS011;29904;51.058;5.378;2022-07-04T02:12:55;1.52;;;0.90;;
44228;SDS011;29904;51.058;5.378;2022-07-04T02:15:30;1.67;;;0.80;;
44228;SDS011;29904;51.058;5.378;2022-07-04T02:17:57;1.40;;;0.90;;
44228;SDS011;29904;51.058;5.378;2022-07-04T02:20:23;1.53;;;0.77;;
44228;SDS011;29904;51.058;5.378;2022-07-04T02:22:49;2.00;;;0.80;;
44228;SDS011;29904;51.058;5.378;2022-07-04T02:25:15;2.17;;;0.75;;
44228;SDS011;29904;51.058;5.378;2022-07-04T02:27:43;1.48;;;0.88;;
44228;SDS011;29904;51.058;5.378;2022-07-04T02:30:09;3.20;;;0.90;;
44228;SDS011;29904;51.058;5.378;2022-07-04T02:32:36;1.43;;;0.90;;
44228;SDS011;29904;51.058;5.378;2022-07-04T02:35:02;1.90;;;1.08;;
44228;SDS011;29904;51.058;5.378;2022-07-04T02:37:28;2.42;;;1.00;;
44228;SDS011;29904;51.058;5.378;2022-07-04T02:39:54;1.73;;;1.02;;
44228;SDS011;29904;51.058;5.378;2022-07-04T02:42:22;2.10;;;0.90;;
44228;SDS011;29904;51.058;5.378;2022-07-04T02:44:48;3.20;;;1.30;;
44228;SDS011;29904;51.058;5.378;2022-07-04T02:47:14;2.63;;;1.00;;
44228;SDS011;29904;51.058;5.378;2022-07-04T02:49:40;2.15;;;1.10;;
44228;SDS011;29904;51.058;5.378;2022-07-04T02:52:06;1.33;;;0.90;;
44228;SDS011;29904;51.058;5.378;2022-07-04T02:54:33;1.70;;;1.00;;
44228;SDS011;29904;51.058;5.378;2022-07-04T02:56:59;2.40;;;1.38;;
44228;SDS011;29904;51.058;5.378;2022-07-04T02:59:25;3.27;;;1.50;;
44228;SDS011;29904;51.058;5.378;2022-07-04T03:01:53;3.37;;;1.70;;
44228;SDS011;29904;51.058;5.378;2022-07-04T03:04:18;3.20;;;1.80;;
44228;SDS011;29904;51.058;5.378;2022-07-04T03:06:44;3.57;;;1.70;;
44228;SDS011;29904;51.058;5.378;2022-07-04T03:09:10;1.83;;;1.30;;
44228;SDS011;29904;51.058;5.378;2022-07-04T03:11:35;2.17;;;1.30;;
44228;SDS011;29904;51.058;5.378;2022-07-04T03:14:01;2.70;;;1.70;;
44228;SDS011;29904;51.058;5.378;2022-07-04T03:16:27;3.92;;;1.90;;
44228;SDS011;29904;51.058;5.378;2022-07-04T03:18:54;2.38;;;1.45;;
44228;SDS011;29904;51.058;5.378;2022-07-04T03:21:20;2.80;;;1.77;;
44228;SDS011;29904;51.058;5.378;2022-07-04T03:23:46;2.53;;;1.50;;
44228;SDS011;29904;51.058;5.378;2022-07-04T03:26:23;3.13;;;1.52;;
44228;SDS011;29904;51.058;5.378;2022-07-04T03:28:51;2.28;;;1.50;;
44228;SDS011;29904;51.058;5.378;2022-07-04T03:31:17;3.20;;;1.58;;
44228;SDS011;29904;51.058;5.378;2022-07-04T03:33:42;3.35;;;1.60;;
44228;SDS011;29904;51.058;5.378;2022-07-04T03:36:08;2.88;;;1.77;;
44228;SDS011;29904;51.058;5.378;2022-07-04T03:38:34;2.65;;;1.63;;
44228;SDS011;29904;51.058;5.378;2022-07-04T03:41:00;3.33;;;1.60;;
44228;SDS011;29904;51.058;5.378;2022-07-04T03:43:26;2.08;;;1.40;;
44228;SDS011;29904;51.058;5.378;2022-07-04T03:45:51;2.17;;;1.35;;
44228;SDS011;29904;51.058;5.378;2022-07-04T03:48:17;2.67;;;1.40;;
44228;SDS011;29904;51.058;5.378;2022-07-04T03:50:43;2.20;;;1.60;;
44228;SDS011;29904;51.058;5.378;2022-07-04T03:53:08;3.23;;;1.67;;
44228;SDS011;29904;51.058;5.378;2022-07-04T03:55:34;2.70;;;1.63;;
44228;SDS011;29904;51.058;5.378;2022-07-04T03:58:04;5.03;;;1.90;;
44228;SDS011;29904;51.058;5.378;2022-07-04T04:00:30;3.70;;;1.90;;
44228;SDS011;29904;51.058;5.378;2022-07-04T04:02:56;3.85;;;1.98;;
44228;SDS011;29904;51.058;5.378;2022-07-04T04:05:22;3.67;;;1.83;;
44228;SDS011;29904;51.058;5.378;2022-07-04T04:07:55;4.22;;;1.73;;
44228;SDS011;29904;51.058;5.378;2022-07-04T04:10:22;2.40;;;1.40;;
44228;SDS011;29904;51.058;5.378;2022-07-04T04:12:50;1.80;;;1.50;;
44228;SDS011;29904;51.058;5.378;2022-07-04T04:15:16;2.70;;;1.37;;
44228;SDS011;29904;51.058;5.378;2022-07-04T04:17:42;3.88;;;1.60;;
44228;SDS011;29904;51.058;5.378;2022-07-04T04:20:08;3.42;;;1.50;;
44228;SDS011;29904;51.058;5.378;2022-07-04T04:22:34;3.63;;;1.95;;
44228;SDS011;29904;51.058;5.378;2022-07-04T04:25:00;3.55;;;1.90;;
44228;SDS011;29904;51.058;5.378;2022-07-04T04:27:26;2.80;;;1.80;;
44228;SDS011;29904;51.058;5.378;2022-07-04T04:29:51;3.77;;;2.03;;
44228;SDS011;29904;51.058;5.378;2022-07-04T04:32:17;2.47;;;2.00;;
44228;SDS011;29904;51.058;5.378;2022-07-04T04:34:43;4.03;;;2.42;;
44228;SDS011;29904;51.058;5.378;2022-07-04T04:37:08;3.92;;;2.33;;
44228;SDS011;29904;51.058;5.378;2022-07-04T04:39:34;4.10;;;2.60;;
44228;SDS011;29904;51.058;5.378;2022-07-04T04:42:00;3.30;;;2.38;;
44228;SDS011;29904;51.058;5.378;2022-07-04T04:44:25;3.70;;;2.65;;
44228;SDS011;29904;51.058;5.378;2022-07-04T04:46:51;4.07;;;2.60;;
44228;SDS011;29904;51.058;5.378;2022-07-04T04:49:18;5.80;;;2.50;;
44228;SDS011;29904;51.058;5.378;2022-07-04T04:51:44;3.70;;;2.67;;
44228;SDS011;29904;51.058;5.378;2022-07-04T04:54:10;4.88;;;2.90;;
44228;SDS011;29904;51.058;5.378;2022-07-04T04:56:36;4.53;;;3.20;;
44228;SDS011;29904;51.058;5.378;2022-07-04T04:59:02;6.83;;;3.40;;
44228;SDS011;29904;51.058;5.378;2022-07-04T05:01:28;5.70;;;3.90;;
44228;SDS011;29904;51.058;5.378;2022-07-04T05:03:56;6.20;;;3.72;;
44228;SDS011;29904;51.058;5.378;2022-07-04T05:06:21;8.07;;;4.28;;
44228;SDS011;29904;51.058;5.378;2022-07-04T05:08:47;11.48;;;4.70;;
44228;SDS011;29904;51.058;5.378;2022-07-04T05:11:13;8.00;;;4.43;;
44228;SDS011;29904;51.058;5.378;2022-07-04T05:13:39;7.85;;;4.25;;
44228;SDS011;29904;51.058;5.378;2022-07-04T05:16:05;8.27;;;3.80;;
44228;SDS011;29904;51.058;5.378;2022-07-04T05:18:31;9.73;;;4.25;;
44228;SDS011;29904;51.058;5.378;2022-07-04T05:20:57;7.53;;;4.20;;
44228;SDS011;29904;51.058;5.378;2022-07-04T05:23:24;8.30;;;4.13;;
44228;SDS011;29904;51.058;5.378;2022-07-04T05:25:52;7.27;;;3.63;;
44228;SDS011;29904;51.058;5.378;2022-07-04T05:28:17;7.77;;;3.30;;
44228;SDS011;29904;51.058;5.378;2022-07-04T05:30:43;8.82;;;3.45;;
44228;SDS011;29904;51.058;5.378;2022-07-04T05:33:09;6.43;;;3.38;;
44228;SDS011;29904;51.058;5.378;2022-07-04T05:35:36;6.57;;;3.55;;
44228;SDS011;29904;51.058;5.378;2022-07-04T05:38:02;6.63;;;3.05;;
44228;SDS011;29904;51.058;5.378;2022-07-04T05:40:28;5.55;;;2.83;;
44228;SDS011;29904;51.058;5.378;2022-07-04T05:42:54;5.13;;;2.90;;
44228;SDS011;29904;51.058;5.378;2022-07-04T05:45:21;5.80;;;3.08;;
44228;SDS011;29904;51.058;5.378;2022-07-04T05:47:49;6.57;;;2.85;;
44228;SDS011;29904;51.058;5.378;2022-07-04T05:50:14;4.17;;;2.77;;
44228;SDS011;29904;51.058;5.378;2022-07-04T05:52:40;5.63;;;2.88;;
44228;SDS011;29904;51.058;5.378;2022-07-04T05:55:08;6.28;;;3.10;;
44228;SDS011;29904;51.058;5.378;2022-07-04T05:57:34;6.90;;;3.00;;
44228;SDS011;29904;51.058;5.378;2022-07-04T06:00:00;7.25;;;3.00;;
44228;SDS011;29904;51.058;5.378;2022-07-04T06:02:28;4.47;;;2.30;;
44228;SDS011;29904;51.058;5.378;2022-07-04T06:04:54;6.87;;;3.00;;
44228;SDS011;29904;51.058;5.378;2022-07-04T06:07:19;4.82;;;2.45;;
44228;SDS011;29904;51.058;5.378;2022-07-04T06:09:47;3.20;;;2.22;;
44228;SDS011;29904;51.058;5.378;2022-07-04T06:12:13;5.00;;;2.20;;
44228;SDS011;29904;51.058;5.378;2022-07-04T06:14:38;5.70;;;2.20;;
44228;SDS011;29904;51.058;5.378;2022-07-04T06:17:06;3.80;;;2.00;;
44228;SDS011;29904;51.058;5.378;2022-07-04T06:19:32;4.47;;;2.00;;
44228;SDS011;29904;51.058;5.378;2022-07-04T06:21:57;4.07;;;1.80;;
44228;SDS011;29904;51.058;5.378;2022-07-04T06:24:23;4.33;;;1.60;;
44228;SDS011;29904;51.058;5.378;2022-07-04T06:26:49;4.75;;;1.58;;
44228;SDS011;29904;51.058;5.378;2022-07-04T06:29:15;4.55;;;1.63;;
44228;SDS011;29904;51.058;5.378;2022-07-04T06:31:40;5.35;;;1.70;;
44228;SDS011;29904;51.058;5.378;2022-07-04T06:34:06;3.43;;;1.73;;
44228;SDS011;29904;51.058;5.378;2022-07-04T06:36:50;2.75;;;1.50;;
44228;SDS011;29904;51.058;5.378;2022-07-04T06:39:18;3.55;;;1.20;;
44228;SDS011;29904;51.058;5.378;2022-07-04T06:41:46;4.85;;;1.40;;
44228;SDS011;29904;51.058;5.378;2022-07-04T06:44:11;5.40;;;1.20;;
44228;SDS011;29904;51.058;5.378;2022-07-04T06:46:37;3.80;;;1.27;;
44228;SDS011;29904;51.058;5.378;2022-07-04T06:49:04;3.15;;;0.93;;
44228;SDS011;29904;51.058;5.378;2022-07-04T06:51:30;3.22;;;1.08;;
44228;SDS011;29904;51.058;5.378;2022-07-04T06:53:56;2.30;;;1.02;;
44228;SDS011;29904;51.058;5.378;2022-07-04T06:56:23;4.25;;;1.00;;
44228;SDS011;29904;51.058;5.378;2022-07-04T06:58:51;3.15;;;1.15;;
44228;SDS011;29904;51.058;5.378;2022-07-04T07:01:17;2.45;;;0.90;;
44228;SDS011;29904;51.058;5.378;2022-07-04T07:03:42;3.67;;;0.83;;
44228;SDS011;29904;51.058;5.378;2022-07-04T07:06:08;5.25;;;1.00;;
44228;SDS011;29904;51.058;5.378;2022-07-04T07:08:34;3.95;;;1.00;;
44228;SDS011;29904;51.058;5.378;2022-07-04T07:11:00;3.35;;;0.70;;
44228;SDS011;29904;51.058;5.378;2022-07-04T07:13:37;3.00;;;0.80;;
44228;SDS011;29904;51.058;5.378;2022-07-04T07:16:09;2.97;;;0.95;;
44228;SDS011;29904;51.058;5.378;2022-07-04T07:18:35;3.05;;;0.70;;
44228;SDS011;29904;51.058;5.378;2022-07-04T07:21:01;4.30;;;0.80;;
44228;SDS011;29904;51.058;5.378;2022-07-04T07:23:27;3.63;;;0.82;;
44228;SDS011;29904;51.058;5.378;2022-07-04T07:25:53;2.30;;;0.70;;
44228;SDS011;29904;51.058;5.378;2022-07-04T07:28:18;2.25;;;0.70;;
44228;SDS011;29904;51.058;5.378;2022-07-04T07:30:44;3.80;;;0.70;;
44228;SDS011;29904;51.058;5.378;2022-07-04T07:33:12;1.67;;;0.75;;
44228;SDS011;29904;51.058;5.378;2022-07-04T07:35:37;3.35;;;0.80;;
44228;SDS011;29904;51.058;5.378;2022-07-04T07:38:03;2.80;;;0.77;;
44228;SDS011;29904;51.058;5.378;2022-07-04T07:40:31;2.85;;;0.82;;
44228;SDS011;29904;51.058;5.378;2022-07-04T07:42:57;4.38;;;0.80;;
44228;SDS011;29904;51.058;5.378;2022-07-04T07:45:22;4.60;;;0.80;;
44228;SDS011;29904;51.058;5.378;2022-07-04T07:47:48;3.80;;;1.10;;
44228;SDS011;29904;51.058;5.378;2022-07-04T07:50:14;3.28;;;0.95;;
44228;SDS011;29904;51.058;5.378;2022-07-04T07:52:40;1.75;;;0.80;;
44228;SDS011;29904;51.058;5.378;2022-07-04T07:55:08;2.67;;;0.90;;
44228;SDS011;29904;51.058;5.378;2022-07-04T07:57:34;2.42;;;0.75;;
44228;SDS011;29904;51.058;5.378;2022-07-04T07:59:59;2.53;;;0.60;;
44228;SDS011;29904;51.058;5.378;2022-07-04T08:02:25;2.92;;;0.70;;
44228;SDS011;29904;51.058;5.378;2022-07-04T08:05:10;2.40;;;0.70;;
44228;SDS011;29904;51.058;5.378;2022-07-04T08:07:37;3.55;;;0.60;;
44228;SDS011;29904;51.058;5.378;2022-07-04T08:10:03;2.03;;;0.55;;
44228;SDS011;29904;51.058;5.378;2022-07-04T08:12:30;3.65;;;0.70;;
44228;SDS011;29904;51.058;5.378;2022-07-04T08:14:55;3.17;;;0.60;;
44228;SDS011;29904;51.058;5.378;2022-07-04T08:17:23;2.92;;;0.60;;
44228;SDS011;29904;51.058;5.378;2022-07-04T08:19:49;2.78;;;0.80;;
44228;SDS011;29904;51.058;5.378;2022-07-04T08:22:15;2.40;;;0.50;;
44228;SDS011;29904;51.058;5.378;2022-07-04T08:24:43;2.53;;;0.63;;
44228;SDS011;29904;51.058;5.378;2022-07-04T08:27:09;1.75;;;0.60;;
44228;SDS011;29904;51.058;5.378;2022-07-04T08:29:35;2.58;;;0.68;;
44228;SDS011;29904;51.058;5.378;2022-07-04T08:32:03;3.08;;;0.77;;
44228;SDS011;29904;51.058;5.378;2022-07-04T08:34:29;2.05;;;0.55;;
44228;SDS011;29904;51.058;5.378;2022-07-04T08:36:56;3.40;;;0.70;;
44228;SDS011;29904;51.058;5.378;2022-07-04T08:39:22;2.58;;;0.68;;
44228;SDS011;29904;51.058;5.378;2022-07-04T08:41:48;2.23;;;0.50;;
44228;SDS011;29904;51.058;5.378;2022-07-04T08:44:17;2.03;;;0.40;;
44228;SDS011;29904;51.058;5.378;2022-07-04T08:46:46;2.88;;;0.60;;
44228;SDS011;29904;51.058;5.378;2022-07-04T08:49:18;1.77;;;0.50;;
44228;SDS011;29904;51.058;5.378;2022-07-04T08:51:51;2.70;;;0.60;;
44228;SDS011;29904;51.058;5.378;2022-07-04T08:54:18;2.17;;;0.60;;
44228;SDS011;29904;51.058;5.378;2022-07-04T08:57:03;3.17;;;0.65;;
44228;SDS011;29904;51.058;5.378;2022-07-04T08:59:48;3.15;;;0.55;;
44228;SDS011;29904;51.058;5.378;2022-07-04T09:02:18;3.15;;;0.50;;
44228;SDS011;29904;51.058;5.378;2022-07-04T09:04:45;2.70;;;0.50;;
44228;SDS011;29904;51.058;5.378;2022-07-04T09:07:12;3.20;;;0.50;;
44228;SDS011;29904;51.058;5.378;2022-07-04T09:09:39;1.60;;;0.33;;
44228;SDS011;29904;51.058;5.378;2022-07-04T09:12:05;2.43;;;0.50;;
44228;SDS011;29904;51.058;5.378;2022-07-04T09:14:32;1.48;;;0.50;;
44228;SDS011;29904;51.058;5.378;2022-07-04T09:16:59;2.90;;;0.60;;
44228;SDS011;29904;51.058;5.378;2022-07-04T09:19:25;1.20;;;0.30;;
44228;SDS011;29904;51.058;5.378;2022-07-04T09:21:51;1.20;;;0.40;;
44228;SDS011;29904;51.058;5.378;2022-07-04T09:24:21;3.70;;;0.60;;
44228;SDS011;29904;51.058;5.378;2022-07-04T09:27:12;2.95;;;0.40;;
44228;SDS011;29904;51.058;5.378;2022-07-04T09:29:55;1.83;;;0.30;;
44228;SDS011;29904;51.058;5.378;2022-07-04T09:35:17;1.45;;;0.40;;
44228;SDS011;29904;51.058;5.378;2022-07-04T09:37:48;1.88;;;0.40;;
44228;SDS011;29904;51.058;5.378;2022-07-04T09:40:35;2.20;;;0.32;;
44228;SDS011;29904;51.058;5.378;2022-07-04T09:43:20;1.58;;;0.60;;
44228;SDS011;29904;51.058;5.378;2022-07-04T09:45:54;1.03;;;0.30;;
44228;SDS011;29904;51.058;5.378;2022-07-04T09:48:20;2.10;;;0.50;;
44228;SDS011;29904;51.058;5.378;2022-07-04T09:50:47;1.77;;;0.40;;
44228;SDS011;29904;51.058;5.378;2022-07-04T09:53:14;1.58;;;0.40;;
44228;SDS011;29904;51.058;5.378;2022-07-04T09:55:42;1.85;;;0.35;;
44228;SDS011;29904;51.058;5.378;2022-07-04T09:58:11;2.55;;;0.50;;
44228;SDS011;29904;51.058;5.378;2022-07-04T10:00:43;2.13;;;0.60;;
44228;SDS011;29904;51.058;5.378;2022-07-04T10:03:26;2.08;;;0.50;;
44228;SDS011;29904;51.058;5.378;2022-07-04T10:06:06;2.22;;;0.55;;
44228;SDS011;29904;51.058;5.378;2022-07-04T10:08:33;2.20;;;0.40;;
44228;SDS011;29904;51.058;5.378;2022-07-04T10:11:00;2.55;;;0.50;;
44228;SDS011;29904;51.058;5.378;2022-07-04T10:13:26;1.33;;;0.45;;
44228;SDS011;29904;51.058;5.378;2022-07-04T10:15:52;1.25;;;0.40;;
44228;SDS011;29904;51.058;5.378;2022-07-04T10:18:19;2.10;;;0.40;;
44228;SDS011;29904;51.058;5.378;2022-07-04T10:20:46;1.63;;;0.40;;
44228;SDS011;29904;51.058;5.378;2022-07-04T10:23:14;1.92;;;0.50;;
44228;SDS011;29904;51.058;5.378;2022-07-04T10:25:45;2.13;;;0.50;;
44228;SDS011;29904;51.058;5.378;2022-07-04T10:28:13;1.88;;;0.52;;
44228;SDS011;29904;51.058;5.378;2022-07-04T10:30:39;1.55;;;0.45;;
44228;SDS011;29904;51.058;5.378;2022-07-04T10:33:06;3.30;;;0.50;;
44228;SDS011;29904;51.058;5.378;2022-07-04T10:35:47;1.53;;;0.43;;
44228;SDS011;29904;51.058;5.378;2022-07-04T10:38:20;2.40;;;0.40;;
44228;SDS011;29904;51.058;5.378;2022-07-04T10:41:03;1.90;;;0.30;;
44228;SDS011;29904;51.058;5.378;2022-07-04T10:48:31;2.07;;;0.40;;
44228;SDS011;29904;51.058;5.378;2022-07-04T10:53:24;2.30;;;0.60;;
44228;SDS011;29904;51.058;5.378;2022-07-04T10:55:50;1.93;;;0.40;;
44228;SDS011;29904;51.058;5.378;2022-07-04T11:01:09;1.10;;;0.35;;
44228;SDS011;29904;51.058;5.378;2022-07-04T11:03:45;2.58;;;0.50;;
44228;SDS011;29904;51.058;5.378;2022-07-04T11:12:00;1.48;;;0.30;;
44228;SDS011;29904;51.058;5.378;2022-07-04T11:14:35;1.80;;;0.40;;
44228;SDS011;29904;51.058;5.378;2022-07-04T11:17:07;2.67;;;0.40;;
44228;SDS011;29904;51.058;5.378;2022-07-04T11:19:33;1.30;;;0.40;;
44228;SDS011;29904;51.058;5.378;2022-07-04T11:22:00;1.95;;;0.40;;
44228;SDS011;29904;51.058;5.378;2022-07-04T11:24:30;1.45;;;0.43;;
44228;SDS011;29904;51.058;5.378;2022-07-04T11:26:56;1.38;;;0.40;;
44228;SDS011;29904;51.058;5.378;2022-07-04T11:29:23;2.38;;;0.40;;
44228;SDS011;29904;51.058;5.378;2022-07-04T11:31:51;1.80;;;0.40;;
44228;SDS011;29904;51.058;5.378;2022-07-04T11:34:18;0.80;;;0.30;;
44228;SDS011;29904;51.058;5.378;2022-07-04T11:36:45;1.63;;;0.45;;
44228;SDS011;29904;51.058;5.378;2022-07-04T11:39:13;1.45;;;0.40;;
44228;SDS011;29904;51.058;5.378;2022-07-04T11:41:44;2.00;;;0.40;;
44228;SDS011;29904;51.058;5.378;2022-07-04T11:44:40;1.65;;;0.40;;
44228;SDS011;29904;51.058;5.378;2022-07-04T11:47:35;1.57;;;0.40;;
44228;SDS011;29904;51.058;5.378;2022-07-04T11:50:02;2.75;;;0.40;;
44228;SDS011;29904;51.058;5.378;2022-07-04T11:55:02;1.95;;;0.40;;
44228;SDS011;29904;51.058;5.378;2022-07-04T11:57:33;2.47;;;0.40;;
44228;SDS011;29904;51.058;5.378;2022-07-04T12:00:05;3.00;;;0.43;;
44228;SDS011;29904;51.058;5.378;2022-07-04T12:02:31;1.13;;;0.30;;
44228;SDS011;29904;51.058;5.378;2022-07-04T12:04:59;2.35;;;0.50;;
44228;SDS011;29904;51.058;5.378;2022-07-04T12:07:28;1.17;;;0.40;;
44228;SDS011;29904;51.058;5.378;2022-07-04T12:09:57;1.38;;;0.40;;
44228;SDS011;29904;51.058;5.378;2022-07-04T12:12:33;1.27;;;0.50;;
44228;SDS011;29904;51.058;5.378;2022-07-04T12:15:00;1.95;;;0.35;;
44228;SDS011;29904;51.058;5.378;2022-07-04T12:17:37;1.30;;;0.47;;
44228;SDS011;29904;51.058;5.378;2022-07-04T12:20:14;3.03;;;0.40;;
44228;SDS011;29904;51.058;5.378;2022-07-04T12:22:43;1.20;;;0.40;;
44228;SDS011;29904;51.058;5.378;2022-07-04T12:27:55;1.15;;;0.40;;
44228;SDS011;29904;51.058;5.378;2022-07-04T12:30:23;1.65;;;0.40;;
44228;SDS011;29904;51.058;5.378;2022-07-04T12:32:53;0.70;;;0.40;;
44228;SDS011;29904;51.058;5.378;2022-07-04T12:35:36;1.77;;;0.43;;
44228;SDS011;29904;51.058;5.378;2022-07-04T12:38:12;1.17;;;0.35;;
44228;SDS011;29904;51.058;5.378;2022-07-04T12:40:58;2.90;;;0.40;;
44228;SDS011;29904;51.058;5.378;2022-07-04T12:43:47;1.98;;;0.30;;
44228;SDS011;29904;51.058;5.378;2022-07-04T12:46:12;1.75;;;0.40;;
44228;SDS011;29904;51.058;5.378;2022-07-04T12:48:54;2.42;;;0.47;;
44228;SDS011;29904;51.058;5.378;2022-07-04T12:51:21;1.70;;;0.35;;
44228;SDS011;29904;51.058;5.378;2022-07-04T12:53:52;1.20;;;0.50;;
44228;SDS011;29904;51.058;5.378;2022-07-04T12:58:58;1.98;;;0.57;;
44228;SDS011;29904;51.058;5.378;2022-07-04T13:01:25;1.92;;;0.40;;
44228;SDS011;29904;51.058;5.378;2022-07-04T13:03:51;2.20;;;0.37;;
44228;SDS011;29904;51.058;5.378;2022-07-04T13:06:17;1.17;;;0.40;;
44228;SDS011;29904;51.058;5.378;2022-07-04T13:08:43;1.27;;;0.50;;
44228;SDS011;29904;51.058;5.378;2022-07-04T13:11:08;1.58;;;0.40;;
44228;SDS011;29904;51.058;5.378;2022-07-04T13:13:53;2.33;;;0.40;;
44228;SDS011;29904;51.058;5.378;2022-07-04T13:16:18;1.77;;;0.47;;
44228;SDS011;29904;51.058;5.378;2022-07-04T13:18:48;2.17;;;0.50;;
44228;SDS011;29904;51.058;5.378;2022-07-04T13:21:13;1.35;;;0.40;;
44228;SDS011;29904;51.058;5.378;2022-07-04T13:23:39;2.78;;;0.52;;
44228;SDS011;29904;51.058;5.378;2022-07-04T13:26:07;3.13;;;0.70;;
44228;SDS011;29904;51.058;5.378;2022-07-04T13:28:32;2.05;;;0.50;;
44228;SDS011;29904;51.058;5.378;2022-07-04T13:30:58;1.23;;;0.50;;
44228;SDS011;29904;51.058;5.378;2022-07-04T13:33:27;2.03;;;0.47;;
44228;SDS011;29904;51.058;5.378;2022-07-04T13:35:53;1.30;;;0.40;;
44228;SDS011;29904;51.058;5.378;2022-07-04T13:38:19;2.10;;;0.40;;
44228;SDS011;29904;51.058;5.378;2022-07-04T13:40:45;3.47;;;0.50;;
44228;SDS011;29904;51.058;5.378;2022-07-04T13:43:10;2.70;;;0.47;;
44228;SDS011;29904;51.058;5.378;2022-07-04T13:45:37;2.00;;;0.40;;
44228;SDS011;29904;51.058;5.378;2022-07-04T13:48:05;3.08;;;0.50;;
44228;SDS011;29904;51.058;5.378;2022-07-04T13:50:32;2.80;;;0.50;;
44228;SDS011;29904;51.058;5.378;2022-07-04T13:53:03;2.30;;;0.50;;
44228;SDS011;29904;51.058;5.378;2022-07-04T13:55:33;1.83;;;0.77;;
44228;SDS011;29904;51.058;5.378;2022-07-04T13:58:02;2.35;;;0.30;;
44228;SDS011;29904;51.058;5.378;2022-07-04T14:00:29;1.45;;;0.50;;
44228;SDS011;29904;51.058;5.378;2022-07-04T14:02:54;1.95;;;0.55;;
44228;SDS011;29904;51.058;5.378;2022-07-04T14:05:20;2.97;;;0.40;;
44228;SDS011;29904;51.058;5.378;2022-07-04T14:07:46;1.15;;;0.40;;
44228;SDS011;29904;51.058;5.378;2022-07-04T14:10:16;1.55;;;0.50;;
44228;SDS011;29904;51.058;5.378;2022-07-04T14:12:41;1.88;;;0.50;;
44228;SDS011;29904;51.058;5.378;2022-07-04T14:15:07;1.70;;;0.50;;
44228;SDS011;29904;51.058;5.378;2022-07-04T14:17:34;1.67;;;0.50;;
44228;SDS011;29904;51.058;5.378;2022-07-04T14:20:00;2.22;;;0.50;;
44228;SDS011;29904;51.058;5.378;2022-07-04T14:22:26;0.60;;;0.30;;
44228;SDS011;29904;51.058;5.378;2022-07-04T14:24:54;2.70;;;0.45;;
44228;SDS011;29904;51.058;5.378;2022-07-04T14:27:20;4.23;;;0.57;;
44228;SDS011;29904;51.058;5.378;2022-07-04T14:29:46;2.85;;;0.50;;
44228;SDS011;29904;51.058;5.378;2022-07-04T14:32:11;1.93;;;0.40;;
44228;SDS011;29904;51.058;5.378;2022-07-04T14:34:37;0.80;;;0.40;;
44228;SDS011;29904;51.058;5.378;2022-07-04T14:37:03;1.57;;;0.50;;
44228;SDS011;29904;51.058;5.378;2022-07-04T14:39:29;1.70;;;0.40;;
44228;SDS011;29904;51.058;5.378;2022-07-04T14:41:54;1.23;;;0.40;;
44228;SDS011;29904;51.058;5.378;2022-07-04T14:44:20;2.28;;;0.60;;
44228;SDS011;29904;51.058;5.378;2022-07-04T14:46:46;1.80;;;0.40;;
44228;SDS011;29904;51.058;5.378;2022-07-04T14:49:14;1.42;;;0.40;;
44228;SDS011;29904;51.058;5.378;2022-07-04T14:51:39;1.60;;;0.50;;
44228;SDS011;29904;51.058;5.378;2022-07-04T14:54:06;1.70;;;0.50;;
44228;SDS011;29904;51.058;5.378;2022-07-04T14:56:33;1.73;;;0.40;;
44228;SDS011;29904;51.058;5.378;2022-07-04T14:59:00;1.80;;;0.40;;
44228;SDS011;29904;51.058;5.378;2022-07-04T15:01:25;2.07;;;0.60;;
44228;SDS011;29904;51.058;5.378;2022-07-04T15:03:52;2.67;;;0.60;;
44228;SDS011;29904;51.058;5.378;2022-07-04T15:06:19;1.77;;;0.50;;
44228;SDS011;29904;51.058;5.378;2022-07-04T15:08:44;2.80;;;0.57;;
44228;SDS011;29904;51.058;5.378;2022-07-04T15:11:10;2.80;;;0.53;;
44228;SDS011;29904;51.058;5.378;2022-07-04T15:13:36;3.03;;;0.50;;
44228;SDS011;29904;51.058;5.378;2022-07-04T15:16:04;2.78;;;0.60;;
44228;SDS011;29904;51.058;5.378;2022-07-04T15:18:30;1.20;;;0.43;;